sensor_id;sensor_type;location;lat;lon;timestamp;pressure;altitude;pressure_sealevel;temperature;humidity
57102;BME280;42982;54.558;18.508;2022-09-09T00:00:37;100701.81;;;14.94;65.70
57102;BME280;42982;54.558;18.508;2022-09-09T00:02:18;100702.91;;;14.93;65.50
57102;BME280;42982;54.558;18.508;2022-09-09T00:03:31;100714.53;;;14.94;65.22
57102;BME280;42982;54.558;18.508;2022-09-09T00:04:37;100733.78;;;14.92;65.77
57102;BME280;42982;54.558;18.508;2022-09-09T00:08:44;100695.00;;;14.83;65.52
57102;BME280;42982;54.558;18.508;2022-09-09T00:10:28;100677.63;;;14.84;65.69
57102;BME280;42982;54.558;18.508;2022-09-09T00:11:46;100690.69;;;14.82;66.06
57102;BME280;42982;54.558;18.508;2022-09-09T00:15:39;100682.56;;;14.82;66.27
57102;BME280;42982;54.558;18.508;2022-09-09T00:16:48;100690.09;;;14.85;66.42
57102;BME280;42982;54.558;18.508;2022-09-09T00:18:44;100691.19;;;14.84;66.20
57102;BME280;42982;54.558;18.508;2022-09-09T00:21:05;100678.75;;;14.83;65.73
57102;BME280;42982;54.558;18.508;2022-09-09T00:22:22;100673.16;;;14.79;65.92
57102;BME280;42982;54.558;18.508;2022-09-09T00:23:32;100677.25;;;14.77;66.23
57102;BME280;42982;54.558;18.508;2022-09-09T00:24:54;100677.78;;;14.79;66.27
57102;BME280;42982;54.558;18.508;2022-09-09T00:26:02;100669.47;;;14.75;66.92
57102;BME280;42982;54.558;18.508;2022-09-09T00:27:16;100672.47;;;14.74;66.40
57102;BME280;42982;54.558;18.508;2022-09-09T00:28:20;100664.66;;;14.72;66.54
57102;BME280;42982;54.558;18.508;2022-09-09T00:29:35;100674.88;;;14.75;66.32
57102;BME280;42982;54.558;18.508;2022-09-09T00:30:40;100664.84;;;14.76;65.94
57102;BME280;42982;54.558;18.508;2022-09-09T00:31:46;100669.47;;;14.75;66.30
57102;BME280;42982;54.558;18.508;2022-09-09T00:33:00;100674.06;;;14.75;66.45
57102;BME280;42982;54.558;18.508;2022-09-09T00:36:22;100665.13;;;14.74;67.69
57102;BME280;42982;54.558;18.508;2022-09-09T00:37:32;100668.63;;;14.75;67.49
57102;BME280;42982;54.558;18.508;2022-09-09T00:38:44;100661.03;;;14.77;66.93
57102;BME280;42982;54.558;18.508;2022-09-09T00:39:49;100657.81;;;14.75;67.04
57102;BME280;42982;54.558;18.508;2022-09-09T00:41:00;100674.97;;;14.70;66.84
57102;BME280;42982;54.558;18.508;2022-09-09T00:46:46;100651.59;;;14.74;67.20
57102;BME280;42982;54.558;18.508;2022-09-09T00:48:00;100680.06;;;14.72;67.11
57102;BME280;42982;54.558;18.508;2022-09-09T00:49:14;100654.00;;;14.76;67.27
57102;BME280;42982;54.558;18.508;2022-09-09T00:50:33;100661.44;;;14.70;66.80
57102;BME280;42982;54.558;18.508;2022-09-09T00:52:13;100662.75;;;14.73;66.80
57102;BME280;42982;54.558;18.508;2022-09-09T00:53:56;100653.00;;;14.72;66.58
57102;BME280;42982;54.558;18.508;2022-09-09T00:56:15;100653.00;;;14.72;65.67
57102;BME280;42982;54.558;18.508;2022-09-09T00:57:25;100650.28;;;14.72;66.01
57102;BME280;42982;54.558;18.508;2022-09-09T00:58:28;100670.34;;;14.71;65.77
57102;BME280;42982;54.558;18.508;2022-09-09T00:59:51;100661.94;;;14.72;65.63
57102;BME280;42982;54.558;18.508;2022-09-09T01:01:14;100654.00;;;14.76;65.57
57102;BME280;42982;54.558;18.508;2022-09-09T01:02:28;100642.59;;;14.79;65.87
57102;BME280;42982;54.558;18.508;2022-09-09T01:03:52;100662.00;;;14.81;65.65
57102;BME280;42982;54.558;18.508;2022-09-09T01:05:09;100647.50;;;14.77;65.54
57102;BME280;42982;54.558;18.508;2022-09-09T01:07:27;100656.22;;;14.74;65.19
57102;BME280;42982;54.558;18.508;2022-09-09T01:09:13;100641.88;;;14.73;64.82
57102;BME280;42982;54.558;18.508;2022-09-09T01:10:30;100644.78;;;14.77;65.41
57102;BME280;42982;54.558;18.508;2022-09-09T01:13:19;100664.84;;;14.76;65.29
57102;BME280;42982;54.558;18.508;2022-09-09T01:15:40;100654.63;;;14.73;65.22
57102;BME280;42982;54.558;18.508;2022-09-09T01:16:48;100650.81;;;14.74;65.01
57102;BME280;42982;54.558;18.508;2022-09-09T01:17:53;100656.72;;;14.76;65.39
57102;BME280;42982;54.558;18.508;2022-09-09T01:18:58;100659.25;;;14.72;65.31
57102;BME280;42982;54.558;18.508;2022-09-09T01:20:10;100656.22;;;14.74;65.73
57102;BME280;42982;54.558;18.508;2022-09-09T01:21:59;100649.09;;;14.78;66.12
57102;BME280;42982;54.558;18.508;2022-09-09T01:25:18;100647.81;;;14.75;66.39
57102;BME280;42982;54.558;18.508;2022-09-09T01:26:46;100651.91;;;14.73;66.52
57102;BME280;42982;54.558;18.508;2022-09-09T01:28:03;100656.72;;;14.76;66.33
57102;BME280;42982;54.558;18.508;2022-09-09T01:29:11;100663.81;;;14.72;65.72
57102;BME280;42982;54.558;18.508;2022-09-09T01:30:18;100653.81;;;14.72;65.70
57102;BME280;42982;54.558;18.508;2022-09-09T01:31:31;100637.88;;;14.71;66.24
57102;BME280;42982;54.558;18.508;2022-09-09T01:32:45;100647.41;;;14.68;66.22
57102;BME280;42982;54.558;18.508;2022-09-09T01:33:53;100654.72;;;14.68;66.11
57102;BME280;42982;54.558;18.508;2022-09-09T01:34:56;100657.13;;;14.69;66.26
57102;BME280;42982;54.558;18.508;2022-09-09T01:36:20;100655.22;;;14.70;66.12
57102;BME280;42982;54.558;18.508;2022-09-09T01:37:31;100664.66;;;14.72;66.04
57102;BME280;42982;54.558;18.508;2022-09-09T01:38:34;100650.28;;;14.72;65.92
57102;BME280;42982;54.558;18.508;2022-09-09T01:39:44;100648.41;;;14.72;65.90
57102;BME280;42982;54.558;18.508;2022-09-09T01:40:50;100660.03;;;14.73;66.06
57102;BME280;42982;54.558;18.508;2022-09-09T01:41:56;100638.88;;;14.75;66.27
57102;BME280;42982;54.558;18.508;2022-09-09T01:43:01;100663.81;;;14.72;66.26
57102;BME280;42982;54.558;18.508;2022-09-09T01:44:06;100637.88;;;14.71;65.99
57102;BME280;42982;54.558;18.508;2022-09-09T01:45:12;100647.59;;;14.72;66.21
57102;BME280;42982;54.558;18.508;2022-09-09T01:46:20;100657.63;;;14.71;65.90
57102;BME280;42982;54.558;18.508;2022-09-09T01:47:23;100649.03;;;14.69;66.20
57102;BME280;42982;54.558;18.508;2022-09-09T01:49:00;100651.41;;;14.71;65.88
57102;BME280;42982;54.558;18.508;2022-09-09T01:50:09;100676.56;;;14.71;65.47
57102;BME280;42982;54.558;18.508;2022-09-09T01:51:18;100650.09;;;14.68;65.13
57102;BME280;42982;54.558;18.508;2022-09-09T01:52:25;100647.59;;;14.72;65.58
57102;BME280;42982;54.558;18.508;2022-09-09T01:53:30;100657.81;;;14.75;64.99
57102;BME280;42982;54.558;18.508;2022-09-09T01:54:32;100643.19;;;14.76;65.44
57102;BME280;42982;54.558;18.508;2022-09-09T01:55:44;100646.38;;;14.78;65.51
57102;BME280;42982;54.558;18.508;2022-09-09T01:59:24;100647.69;;;14.80;64.59
57102;BME280;42982;54.558;18.508;2022-09-09T02:00:21;100643.84;;;14.81;64.78
57102;BME280;42982;54.558;18.508;2022-09-09T02:03:00;100647.38;;;14.82;64.98
57102;BME280;42982;54.558;18.508;2022-09-09T02:05:58;100634.94;;;14.81;65.26
57102;BME280;42982;54.558;18.508;2022-09-09T02:07:08;100645.78;;;14.81;65.54
57102;BME280;42982;54.558;18.508;2022-09-09T02:08:45;100638.75;;;14.80;65.03
57102;BME280;42982;54.558;18.508;2022-09-09T02:09:50;100634.75;;;14.77;65.45
57102;BME280;42982;54.558;18.508;2022-09-09T02:11:07;100642.59;;;14.79;65.12
57102;BME280;42982;54.558;18.508;2022-09-09T02:12:23;100640.66;;;14.79;65.17
57102;BME280;42982;54.558;18.508;2022-09-09T02:13:35;100636.56;;;14.82;65.34
57102;BME280;42982;54.558;18.508;2022-09-09T02:14:50;100630.31;;;14.81;64.83
57102;BME280;42982;54.558;18.508;2022-09-09T02:16:04;100632.75;;;14.83;63.96
57102;BME280;42982;54.558;18.508;2022-09-09T02:17:11;100637.84;;;14.84;64.48
57102;BME280;42982;54.558;18.508;2022-09-09T02:18:46;100631.63;;;14.84;64.20
57102;BME280;42982;54.558;18.508;2022-09-09T02:20:12;100633.72;;;14.87;64.50
57102;BME280;42982;54.558;18.508;2022-09-09T02:21:24;100636.44;;;14.87;64.74
57102;BME280;42982;54.558;18.508;2022-09-09T02:22:31;100626.09;;;14.89;64.21
57102;BME280;42982;54.558;18.508;2022-09-09T02:23:42;100629.94;;;14.88;64.10
57102;BME280;42982;54.558;18.508;2022-09-09T02:24:49;100631.53;;;14.89;64.43
57102;BME280;42982;54.558;18.508;2022-09-09T02:26:00;100655.38;;;14.87;63.65
57102;BME280;42982;54.558;18.508;2022-09-09T02:27:09;100636.56;;;14.82;63.55
57102;BME280;42982;54.558;18.508;2022-09-09T02:28:16;100635.44;;;14.83;62.94
57102;BME280;42982;54.558;18.508;2022-09-09T02:29:26;100642.97;;;14.86;62.67
57102;BME280;42982;54.558;18.508;2022-09-09T02:30:36;100626.22;;;14.84;61.97
57102;BME280;42982;54.558;18.508;2022-09-09T02:31:45;100653.00;;;14.86;61.80
57102;BME280;42982;54.558;18.508;2022-09-09T02:32:58;100629.72;;;14.84;62.39
57102;BME280;42982;54.558;18.508;2022-09-09T02:34:22;100639.28;;;14.82;61.41
57102;BME280;42982;54.558;18.508;2022-09-09T02:35:26;100642.44;;;14.84;61.71
57102;BME280;42982;54.558;18.508;2022-09-09T02:36:32;100655.00;;;14.80;61.98
57102;BME280;42982;54.558;18.508;2022-09-09T02:37:42;100629.84;;;14.79;61.45
57102;BME280;42982;54.558;18.508;2022-09-09T02:38:48;100637.16;;;14.79;61.48
57102;BME280;42982;54.558;18.508;2022-09-09T02:39:57;100633.34;;;14.80;61.23
57102;BME280;42982;54.558;18.508;2022-09-09T02:41:00;100645.47;;;14.82;61.35
57102;BME280;42982;54.558;18.508;2022-09-09T02:42:07;100643.38;;;14.79;61.31
57102;BME280;42982;54.558;18.508;2022-09-09T02:43:14;100645.78;;;14.81;61.50
57102;BME280;42982;54.558;18.508;2022-09-09T02:44:20;100630.94;;;14.78;61.41
57102;BME280;42982;54.558;18.508;2022-09-09T02:45:27;100640.16;;;14.77;60.92
57102;BME280;42982;54.558;18.508;2022-09-09T02:50:35;100625.84;;;14.77;61.94
57102;BME280;42982;54.558;18.508;2022-09-09T02:52:05;100636.75;;;14.72;62.32
57102;BME280;42982;54.558;18.508;2022-09-09T02:53:16;100631.06;;;14.73;62.11
57102;BME280;42982;54.558;18.508;2022-09-09T02:54:29;100632.97;;;14.73;61.98
57102;BME280;42982;54.558;18.508;2022-09-09T02:56:53;100632.19;;;14.72;61.77
57102;BME280;42982;54.558;18.508;2022-09-09T02:58:10;100632.19;;;14.72;61.60
57102;BME280;42982;54.558;18.508;2022-09-09T02:59:14;100648.19;;;14.69;61.44
57102;BME280;42982;54.558;18.508;2022-09-09T03:00:26;100632.78;;;14.69;62.05
57102;BME280;42982;54.558;18.508;2022-09-09T03:01:31;100633.06;;;14.68;62.13
57102;BME280;42982;54.558;18.508;2022-09-09T03:02:36;100623.22;;;14.72;62.23
57102;BME280;42982;54.558;18.508;2022-09-09T03:03:44;100643.59;;;14.69;62.14
57102;BME280;42982;54.558;18.508;2022-09-09T03:04:50;100645.00;;;14.67;61.45
57102;BME280;42982;54.558;18.508;2022-09-09T03:05:53;100633.59;;;14.70;61.41
57102;BME280;42982;54.558;18.508;2022-09-09T03:06:58;100636.75;;;14.72;61.49
57102;BME280;42982;54.558;18.508;2022-09-09T03:08:03;100650.44;;;14.67;61.50
57102;BME280;42982;54.558;18.508;2022-09-09T03:09:06;100634.78;;;14.64;61.69
57102;BME280;42982;54.558;18.508;2022-09-09T03:10:11;100634.78;;;14.64;61.27
57102;BME280;42982;54.558;18.508;2022-09-09T03:11:17;100634.78;;;14.64;61.45
57102;BME280;42982;54.558;18.508;2022-09-09T03:12:25;100680.28;;;14.62;61.32
57102;BME280;42982;54.558;18.508;2022-09-09T03:13:30;100642.41;;;14.62;61.14
57102;BME280;42982;54.558;18.508;2022-09-09T03:14:37;100648.00;;;14.65;61.04
57102;BME280;42982;54.558;18.508;2022-09-09T03:15:42;100643.53;;;14.60;61.20
57102;BME280;42982;54.558;18.508;2022-09-09T03:16:52;100640.19;;;14.64;61.15
57102;BME280;42982;54.558;18.508;2022-09-09T03:17:54;100654.22;;;14.66;61.33
57102;BME280;42982;54.558;18.508;2022-09-09T03:19:01;100655.31;;;14.65;61.39
57102;BME280;42982;54.558;18.508;2022-09-09T03:20:06;100640.00;;;14.60;61.64
57102;BME280;42982;54.558;18.508;2022-09-09T03:21:12;100648.81;;;14.66;61.77
57102;BME280;42982;54.558;18.508;2022-09-09T03:22:17;100645.31;;;14.65;61.43
57102;BME280;42982;54.558;18.508;2022-09-09T03:23:19;100634.78;;;14.64;61.71
57102;BME280;42982;54.558;18.508;2022-09-09T03:24:26;100633.06;;;14.68;61.59
57102;BME280;42982;54.558;18.508;2022-09-09T03:25:31;100653.13;;;14.67;61.84
57102;BME280;42982;54.558;18.508;2022-09-09T03:26:37;100640.41;;;14.67;61.75
57102;BME280;42982;54.558;18.508;2022-09-09T03:27:46;100642.41;;;14.62;62.00
57102;BME280;42982;54.558;18.508;2022-09-09T03:28:51;100639.59;;;14.67;62.12
57102;BME280;42982;54.558;18.508;2022-09-09T03:29:58;100631.78;;;14.65;62.22
57102;BME280;42982;54.558;18.508;2022-09-09T03:31:07;100628.78;;;14.67;62.20
57102;BME280;42982;54.558;18.508;2022-09-09T03:32:15;100654.81;;;14.63;61.99
57102;BME280;42982;54.558;18.508;2022-09-09T03:33:23;100645.00;;;14.67;62.12
57102;BME280;42982;54.558;18.508;2022-09-09T03:34:28;100652.00;;;14.68;61.90
57102;BME280;42982;54.558;18.508;2022-09-09T03:35:32;100637.97;;;14.66;62.11
57102;BME280;42982;54.558;18.508;2022-09-09T03:36:35;100647.41;;;14.68;62.07
57102;BME280;42982;54.558;18.508;2022-09-09T03:37:39;100643.28;;;14.71;61.87
57102;BME280;42982;54.558;18.508;2022-09-09T03:38:46;100651.22;;;14.67;61.68
57102;BME280;42982;54.558;18.508;2022-09-09T03:39:52;100645.00;;;14.67;61.92
57102;BME280;42982;54.558;18.508;2022-09-09T03:41:01;100649.13;;;14.64;61.48
57102;BME280;42982;54.558;18.508;2022-09-09T03:42:07;100641.91;;;14.59;61.38
57102;BME280;42982;54.558;18.508;2022-09-09T03:43:14;100639.59;;;14.53;61.84
57102;BME280;42982;54.558;18.508;2022-09-09T03:44:21;100653.34;;;14.56;61.98
57102;BME280;42982;54.558;18.508;2022-09-09T03:45:26;100654.94;;;14.57;62.53
57102;BME280;42982;54.558;18.508;2022-09-09T03:46:31;100659.06;;;14.55;62.99
57102;BME280;42982;54.558;18.508;2022-09-09T03:47:39;100652.44;;;14.47;63.76
57102;BME280;42982;54.558;18.508;2022-09-09T03:48:45;100669.25;;;14.44;64.69
57102;BME280;42982;54.558;18.508;2022-09-09T03:49:47;100674.25;;;14.37;65.66
57102;BME280;42982;54.558;18.508;2022-09-09T03:50:53;100647.31;;;14.32;66.12
57102;BME280;42982;54.558;18.508;2022-09-09T03:52:15;100667.53;;;14.21;67.79
57102;BME280;42982;54.558;18.508;2022-09-09T03:53:21;100665.56;;;14.12;68.67
57102;BME280;42982;54.558;18.508;2022-09-09T03:54:24;100665.31;;;14.09;69.36
57102;BME280;42982;54.558;18.508;2022-09-09T03:55:31;100663.13;;;13.97;70.77
57102;BME280;42982;54.558;18.508;2022-09-09T03:56:38;100664.00;;;13.93;71.45
57102;BME280;42982;54.558;18.508;2022-09-09T03:57:46;100665.31;;;13.95;72.19
57102;BME280;42982;54.558;18.508;2022-09-09T03:58:58;100665.91;;;13.92;72.96
57102;BME280;42982;54.558;18.508;2022-09-09T04:00:05;100671.72;;;13.85;73.22
57102;BME280;42982;54.558;18.508;2022-09-09T04:01:20;100669.69;;;13.77;74.15
57102;BME280;42982;54.558;18.508;2022-09-09T04:02:22;100671.75;;;13.66;75.14
57102;BME280;42982;54.558;18.508;2022-09-09T04:03:25;100685.34;;;13.61;75.52
57102;BME280;42982;54.558;18.508;2022-09-09T04:04:30;100657.75;;;13.64;75.69
57102;BME280;42982;54.558;18.508;2022-09-09T04:05:34;100675.56;;;13.65;76.35
57102;BME280;42982;54.558;18.508;2022-09-09T04:06:43;100676.97;;;13.63;76.28
57102;BME280;42982;54.558;18.508;2022-09-09T04:07:48;100668.22;;;13.52;77.19
57102;BME280;42982;54.558;18.508;2022-09-09T04:08:58;100682.81;;;13.51;77.42
57102;BME280;42982;54.558;18.508;2022-09-09T04:10:01;100700.72;;;13.47;78.14
57102;BME280;42982;54.558;18.508;2022-09-09T04:11:07;100680.88;;;13.38;78.66
57102;BME280;42982;54.558;18.508;2022-09-09T04:12:16;100689.34;;;13.12;80.77
57102;BME280;42982;54.558;18.508;2022-09-09T04:13:19;100684.50;;;13.09;81.07
57102;BME280;42982;54.558;18.508;2022-09-09T04:14:27;100676.00;;;13.02;81.79
57102;BME280;42982;54.558;18.508;2022-09-09T04:15:31;100686.84;;;12.97;82.27
57102;BME280;42982;54.558;18.508;2022-09-09T04:16:33;100686.84;;;12.97;82.56
57102;BME280;42982;54.558;18.508;2022-09-09T04:17:41;100686.03;;;12.96;82.78
57102;BME280;42982;54.558;18.508;2022-09-09T04:18:44;100688.75;;;12.96;82.97
57102;BME280;42982;54.558;18.508;2022-09-09T04:19:51;100678.97;;;13.01;83.21
57102;BME280;42982;54.558;18.508;2022-09-09T04:20:58;100685.31;;;12.91;83.83
57102;BME280;42982;54.558;18.508;2022-09-09T04:22:08;100689.03;;;12.95;84.99
57102;BME280;42982;54.558;18.508;2022-09-09T04:23:18;100686.69;;;12.88;85.27
57102;BME280;42982;54.558;18.508;2022-09-09T04:24:20;100685.81;;;12.93;85.55
57102;BME280;42982;54.558;18.508;2022-09-09T04:25:24;100679.59;;;12.92;85.27
57102;BME280;42982;54.558;18.508;2022-09-09T04:26:34;100684.66;;;12.99;85.24
57102;BME280;42982;54.558;18.508;2022-09-09T04:27:40;100680.53;;;12.83;84.96
57102;BME280;42982;54.558;18.508;2022-09-09T04:28:44;100681.00;;;12.90;85.04
57102;BME280;42982;54.558;18.508;2022-09-09T04:29:51;100691.50;;;12.91;84.97
57102;BME280;42982;54.558;18.508;2022-09-09T04:31:10;100684.78;;;12.89;84.25
57102;BME280;42982;54.558;18.508;2022-09-09T04:32:15;100692.25;;;12.97;84.20
57102;BME280;42982;54.558;18.508;2022-09-09T04:33:24;100688.75;;;12.96;83.91
57102;BME280;42982;54.558;18.508;2022-09-09T04:34:48;100688.44;;;12.98;84.08
57102;BME280;42982;54.558;18.508;2022-09-09T04:35:51;100698.06;;;13.04;83.93
57102;BME280;42982;54.558;18.508;2022-09-09T04:37:04;100693.84;;;12.98;84.20
57102;BME280;42982;54.558;18.508;2022-09-09T04:38:07;100697.25;;;12.85;84.41
57102;BME280;42982;54.558;18.508;2022-09-09T04:39:13;100690.41;;;12.92;84.38
57102;BME280;42982;54.558;18.508;2022-09-09T04:40:16;100701.44;;;12.96;84.59
57102;BME280;42982;54.558;18.508;2022-09-09T04:41:18;100698.66;;;13.01;84.42
57102;BME280;42982;54.558;18.508;2022-09-09T04:42:25;100699.19;;;13.03;84.65
57102;BME280;42982;54.558;18.508;2022-09-09T04:43:29;100702.88;;;13.07;84.61
57102;BME280;42982;54.558;18.508;2022-09-09T04:44:34;100706.91;;;13.10;84.64
57102;BME280;42982;54.558;18.508;2022-09-09T04:45:36;100725.44;;;12.97;84.95
57102;BME280;42982;54.558;18.508;2022-09-09T04:46:46;100707.53;;;12.83;86.04
57102;BME280;42982;54.558;18.508;2022-09-09T04:47:52;100712.13;;;12.82;86.50
57102;BME280;42982;54.558;18.508;2022-09-09T04:48:55;100702.97;;;12.83;86.74
57102;BME280;42982;54.558;18.508;2022-09-09T04:50:07;100698.94;;;12.81;87.30
57102;BME280;42982;54.558;18.508;2022-09-09T04:51:13;100711.84;;;12.84;87.36
57102;BME280;42982;54.558;18.508;2022-09-09T04:52:20;100703.22;;;12.82;87.57
57102;BME280;42982;54.558;18.508;2022-09-09T04:53:30;100704.56;;;12.84;87.75
57102;BME280;42982;54.558;18.508;2022-09-09T04:54:35;100713.50;;;12.80;87.64
57102;BME280;42982;54.558;18.508;2022-09-09T04:55:41;100708.09;;;12.80;87.86
57102;BME280;42982;54.558;18.508;2022-09-09T04:56:47;100713.50;;;12.80;87.79
57102;BME280;42982;54.558;18.508;2022-09-09T04:57:50;100705.13;;;12.81;87.79
57102;BME280;42982;54.558;18.508;2022-09-09T04:58:57;100705.94;;;12.82;87.63
57102;BME280;42982;54.558;18.508;2022-09-09T05:00:16;100715.56;;;12.88;87.81
57102;BME280;42982;54.558;18.508;2022-09-09T05:01:23;100713.75;;;12.83;87.53
57102;BME280;42982;54.558;18.508;2022-09-09T05:02:28;100712.94;;;12.83;87.36
57102;BME280;42982;54.558;18.508;2022-09-09T05:03:33;100710.09;;;12.74;87.41
57102;BME280;42982;54.558;18.508;2022-09-09T05:04:36;100711.91;;;12.79;87.58
57102;BME280;42982;54.558;18.508;2022-09-09T05:05:40;100717.81;;;12.81;87.77
57102;BME280;42982;54.558;18.508;2022-09-09T05:06:46;100712.44;;;12.81;87.79
57102;BME280;42982;54.558;18.508;2022-09-09T05:07:49;100718.31;;;12.83;87.89
57102;BME280;42982;54.558;18.508;2022-09-09T05:08:50;100713.97;;;12.87;88.37
57102;BME280;42982;54.558;18.508;2022-09-09T05:09:57;100715.03;;;12.86;87.94
57102;BME280;42982;54.558;18.508;2022-09-09T05:11:00;100717.47;;;12.87;87.98
57102;BME280;42982;54.558;18.508;2022-09-09T05:12:08;100710.16;;;12.88;87.84
57102;BME280;42982;54.558;18.508;2022-09-09T05:13:13;100717.16;;;12.89;88.00
57102;BME280;42982;54.558;18.508;2022-09-09T05:14:20;100716.59;;;12.92;87.93
57102;BME280;42982;54.558;18.508;2022-09-09T05:15:32;100721.41;;;12.95;88.04
57102;BME280;42982;54.558;18.508;2022-09-09T05:16:36;100719.81;;;12.94;87.86
57102;BME280;42982;54.558;18.508;2022-09-09T05:17:39;100712.72;;;12.98;88.04
57102;BME280;42982;54.558;18.508;2022-09-09T05:18:49;100713.63;;;12.93;88.04
57102;BME280;42982;54.558;18.508;2022-09-09T05:19:57;100714.78;;;12.87;87.84
57102;BME280;42982;54.558;18.508;2022-09-09T05:21:02;100719.81;;;12.94;87.95
57102;BME280;42982;54.558;18.508;2022-09-09T05:22:06;100722.50;;;12.94;87.65
57102;BME280;42982;54.558;18.508;2022-09-09T05:23:19;100716.81;;;12.95;87.66
57102;BME280;42982;54.558;18.508;2022-09-09T05:24:24;100721.50;;;12.90;87.77
57102;BME280;42982;54.558;18.508;2022-09-09T05:25:33;100715.94;;;12.81;87.74
57102;BME280;42982;54.558;18.508;2022-09-09T05:26:37;100714.34;;;12.80;88.06
57102;BME280;42982;54.558;18.508;2022-09-09T05:27:45;100712.44;;;12.81;88.19
57102;BME280;42982;54.558;18.508;2022-09-09T05:28:50;100722.06;;;12.87;88.05
57102;BME280;42982;54.558;18.508;2022-09-09T05:29:55;100726.81;;;12.95;87.81
57102;BME280;42982;54.558;18.508;2022-09-09T05:31:04;100720.91;;;12.93;87.88
57102;BME280;42982;54.558;18.508;2022-09-09T05:32:12;100730.59;;;12.94;87.61
57102;BME280;42982;54.558;18.508;2022-09-09T05:33:21;100720.97;;;12.88;87.59
57102;BME280;42982;54.558;18.508;2022-09-09T05:34:26;100727.06;;;12.74;87.26
57102;BME280;42982;54.558;18.508;2022-09-09T05:35:31;100712.13;;;12.82;87.55
57102;BME280;42982;54.558;18.508;2022-09-09T05:36:37;100729.13;;;12.83;87.75
57102;BME280;42982;54.558;18.508;2022-09-09T05:37:40;100721.31;;;12.81;87.40
57102;BME280;42982;54.558;18.508;2022-09-09T05:38:43;100717.75;;;12.86;87.16
57102;BME280;42982;54.558;18.508;2022-09-09T05:39:45;100717.75;;;12.86;87.36
57102;BME280;42982;54.558;18.508;2022-09-09T05:40:53;100722.78;;;12.92;87.21
57102;BME280;42982;54.558;18.508;2022-09-09T05:42:00;100717.63;;;12.96;86.90
57102;BME280;42982;54.558;18.508;2022-09-09T05:43:08;100714.06;;;13.01;87.16
57102;BME280;42982;54.558;18.508;2022-09-09T05:44:12;100736.34;;;12.87;86.94
57102;BME280;42982;54.558;18.508;2022-09-09T05:45:16;100720.06;;;12.73;87.58
57102;BME280;42982;54.558;18.508;2022-09-09T05:46:22;100725.97;;;12.75;88.03
57102;BME280;42982;54.558;18.508;2022-09-09T05:47:29;100720.06;;;12.73;87.85
57102;BME280;42982;54.558;18.508;2022-09-09T05:48:36;100720.53;;;12.81;87.63
57102;BME280;42982;54.558;18.508;2022-09-09T05:49:56;100726.28;;;12.74;87.01
57102;BME280;42982;54.558;18.508;2022-09-09T05:51:01;100720.41;;;12.67;87.02
57102;BME280;42982;54.558;18.508;2022-09-09T05:52:06;100723.19;;;12.62;86.75
57102;BME280;42982;54.558;18.508;2022-09-09T05:53:13;100733.97;;;12.62;86.51
57102;BME280;42982;54.558;18.508;2022-09-09T05:54:20;100723.19;;;12.62;86.38
57102;BME280;42982;54.558;18.508;2022-09-09T05:55:29;100734.16;;;12.70;86.49
57102;BME280;42982;54.558;18.508;2022-09-09T05:56:31;100732.81;;;12.68;86.47
57102;BME280;42982;54.558;18.508;2022-09-09T05:57:37;100734.94;;;12.71;86.40
57102;BME280;42982;54.558;18.508;2022-09-09T05:58:40;100738.00;;;12.64;86.55
57102;BME280;42982;54.558;18.508;2022-09-09T05:59:46;100740.75;;;12.59;86.68
57102;BME280;42982;54.558;18.508;2022-09-09T06:00:51;100730.31;;;12.52;86.76
57102;BME280;42982;54.558;18.508;2022-09-09T06:02:02;100735.03;;;12.61;86.72
57102;BME280;42982;54.558;18.508;2022-09-09T06:03:11;100738.09;;;12.54;87.04
57102;BME280;42982;54.558;18.508;2022-09-09T06:04:17;100740.38;;;12.66;86.81
57102;BME280;42982;54.558;18.508;2022-09-09T06:05:26;100735.88;;;12.61;87.02
57102;BME280;42982;54.558;18.508;2022-09-09T06:06:35;100741.13;;;12.71;86.71
57102;BME280;42982;54.558;18.508;2022-09-09T06:07:52;100739.63;;;12.60;86.80
57102;BME280;42982;54.558;18.508;2022-09-09T06:08:57;100740.75;;;12.59;86.33
57102;BME280;42982;54.558;18.508;2022-09-09T06:10:02;100736.59;;;12.43;86.83
57102;BME280;42982;54.558;18.508;2022-09-09T06:11:13;100740.16;;;12.38;87.23
57102;BME280;42982;54.558;18.508;2022-09-09T06:12:20;100741.44;;;12.46;87.52
57102;BME280;42982;54.558;18.508;2022-09-09T06:13:23;100741.44;;;12.46;87.83
57102;BME280;42982;54.558;18.508;2022-09-09T06:14:26;100739.75;;;12.50;87.91
57102;BME280;42982;54.558;18.508;2022-09-09T06:15:34;100749.00;;;12.44;88.13
57102;BME280;42982;54.558;18.508;2022-09-09T06:16:39;100739.69;;;12.31;88.50
57102;BME280;42982;54.558;18.508;2022-09-09T06:17:59;100737.78;;;12.32;88.74
57102;BME280;42982;54.558;18.508;2022-09-09T06:19:02;100744.47;;;12.39;88.63
57102;BME280;42982;54.558;18.508;2022-09-09T06:20:10;100748.41;;;12.47;88.39
57102;BME280;42982;54.558;18.508;2022-09-09T06:22:17;100743.56;;;12.49;88.47
57102;BME280;42982;54.558;18.508;2022-09-09T06:23:30;100743.34;;;12.45;88.38
57102;BME280;42982;54.558;18.508;2022-09-09T06:24:39;100742.00;;;12.43;88.74
57102;BME280;42982;54.558;18.508;2022-09-09T06:25:44;100752.59;;;12.34;89.09
57102;BME280;42982;54.558;18.508;2022-09-09T06:26:50;100742.34;;;12.36;89.33
57102;BME280;42982;54.558;18.508;2022-09-09T06:27:59;100748.19;;;12.43;89.41
57102;BME280;42982;54.558;18.508;2022-09-09T06:29:06;100751.91;;;12.47;89.43
57102;BME280;42982;54.558;18.508;2022-09-09T06:30:12;100740.63;;;12.45;89.17